Aérodrome :
LOGIN :

S'inscrire | Disclaimer

   EN    FR    IT 

 










Légende :    VFR   VFR Marginal   IFR   IFR Intensif   IFR Très Intensif
Visi : 
Plafond : 
>= 8 km
>= 3000ft
5 à 8 km
1000 à 3000 ft
1500m à 5 km
500 à 1000 ft
800 à 1500m
200 à 500 ft
< 800m
< 200 ft
Symboles :   Orages  Brouillard  Fortes neiges  Fortes précipitations  Vent > 20 kt
SIGMETs :   Divers  Orages  Givrage  Turbulence  Onde Orograph.  Cendres Volcan.







- Altitude de l'aérodrome : 37 ft
- Code IATA : OLB


LIEO - Olbia Costa Smeralda

DERNIER METAR :
  • 200820Z 02013KT 9999 SCT030 12/06 Q1023

METARs EXPIRÉS :
  • 200750Z 01014KT 9999 SCT030 12/05 Q1023
  • 200720Z 02012KT 9999 SCT030 11/05 Q1023
  • 200650Z 02012KT 9999 SCT030 11/05 Q1023
  • 200620Z 02014KT 9999 SCT030 11/05 Q1022
  • 200550Z 02011KT 9999 SCT035 11/05 Q1022

TAF TAF LIEO
Valide du 20 à 06h jusqu'au 21 à 06h UTC


200500Z 2006/2106 03012KT 9999 SCT025 SCT040
BECMG 2006/2008 03015G25KT
BECMG 2014/2021 RA
Pas de NOTAMs connus pour ce terrain.



MET'MAP, la Météo Aéronautique d'un coup d'oeil ! - Copyright ORBIFLY Décembre 2007 - Disclaimer

ORBIFLY MET'MAP TEAM :

Programmation & Développement : Alexandra Zaïnal
Conception & Développement : Baudouin d'Aumeries
Co-Programmation & Développement : Marc-Olivier Méhu
Soutien technique & logistique : Manuel Goepfert

Contact : metmap@orbifly.com




SOURCES & CREDITS :

   NOAA